Time;durP1;ratioP1;P1;durP2;ratioP2;P2;SDS_P1;SDS_P2;PMS_P1;PMS_P2;Temp;Humidity;BMP_temperature;BMP_pressure;BME280_temperature;BME280_humidity;BME280_pressure;Samples;Min_cycle;Max_cycle;Signal;HPM_P1;HPM_P2
2023/12/20 00:00:55;;;;;;;2.47;2.08;;;7.00;76.30;;;;;;4945607;28;20031;-63
2023/12/20 00:03:20;;;;;;;2.63;2.38;;;7.00;76.30;;;;;;4947354;28;20035;-62
2023/12/20 00:05:46;;;;;;;3.00;2.05;;;7.00;76.10;;;;;;4949875;28;20058;-62
2023/12/20 00:08:12;;;;;;;2.65;2.13;;;7.00;76.20;;;;;;4943807;28;20522;-62
2023/12/20 00:10:38;;;;;;;1.88;1.73;;;7.00;76.30;;;;;;4946839;28;20024;-62
2023/12/20 00:13:03;;;;;;;2.92;2.20;;;7.00;76.30;;;;;;4942692;28;20114;-62
2023/12/20 00:15:29;;;;;;;2.08;1.73;;;7.00;76.30;;;;;;4947570;28;20035;-61
2023/12/20 00:17:55;;;;;;;2.35;1.95;;;7.00;76.20;;;;;;4949829;28;20027;-63
2023/12/20 00:20:20;;;;;;;2.10;1.90;;;7.00;76.30;;;;;;4942441;28;20064;-63
2023/12/20 00:22:46;;;;;;;2.10;1.90;;;7.00;76.40;;;;;;4944317;28;20035;-63
2023/12/20 00:25:11;;;;;;;2.47;2.08;;;7.00;76.50;;;;;;4949697;28;20062;-62
2023/12/20 00:27:37;;;;;;;2.72;2.20;;;7.00;76.30;;;;;;4948187;28;20035;-62
2023/12/20 00:30:03;;;;;;;2.58;2.25;;;7.10;76.40;;;;;;4948348;28;20047;-62
2023/12/20 00:32:28;;;;;;;2.65;1.90;;;7.10;76.50;;;;;;4949694;28;20406;-63
2023/12/20 00:34:54;;;;;;;2.33;2.10;;;7.00;76.50;;;;;;4945158;28;20031;-63
2023/12/20 00:37:20;;;;;;;2.17;1.98;;;7.00;76.60;;;;;;4949897;28;20027;-63
2023/12/20 00:39:45;;;;;;;2.00;1.80;;;7.00;76.70;;;;;;4945242;28;20054;-62
2023/12/20 00:42:11;;;;;;;2.92;2.10;;;7.00;76.80;;;;;;4941775;28;20039;-63
2023/12/20 00:44:36;;;;;;;2.17;1.90;;;7.00;77.00;;;;;;4949294;28;20035;-63
2023/12/20 00:47:02;;;;;;;3.22;2.10;;;7.00;77.10;;;;;;4947237;28;20505;-63
2023/12/20 00:49:27;;;;;;;2.00;1.77;;;7.00;77.30;;;;;;4941871;28;20043;-63
2023/12/20 00:51:53;;;;;;;3.03;1.90;;;7.00;77.40;;;;;;4947489;28;20036;-63
2023/12/20 00:54:18;;;;;;;1.83;1.67;;;7.00;77.50;;;;;;4948244;28;20066;-63
2023/12/20 00:56:44;;;;;;;1.80;1.70;;;6.90;77.70;;;;;;4947398;28;20404;-63
2023/12/20 00:59:10;;;;;;;1.80;1.70;;;6.90;77.90;;;;;;4948017;28;20054;-62
2023/12/20 01:01:36;;;;;;;1.80;1.70;;;6.90;78.00;;;;;;4944252;28;20499;-61
2023/12/20 01:04:01;;;;;;;1.80;1.70;;;6.90;78.20;;;;;;4943468;28;20047;-61
2023/12/20 01:06:27;;;;;;;2.35;2.00;;;6.90;78.40;;;;;;4942648;28;20055;-63
2023/12/20 01:08:52;;;;;;;2.08;1.88;;;6.80;78.60;;;;;;4945105;28;20061;-63
2023/12/20 01:11:18;;;;;;;2.30;2.10;;;6.80;78.80;;;;;;4942911;28;20066;-62
2023/12/20 01:13:44;;;;;;;2.28;1.90;;;6.80;79.10;;;;;;4946144;28;20040;-63
2023/12/20 01:16:11;;;;;;;1.90;1.80;;;6.80;79.40;;;;;;4946135;28;20127;-63
2023/12/20 01:18:37;;;;;;;2.60;1.92;;;6.80;79.60;;;;;;4949643;28;20032;-63
2023/12/20 01:21:05;;;;;;;1.95;1.83;;;6.70;79.80;;;;;;4942838;28;20040;-63
2023/12/20 01:23:32;;;;;;;1.88;1.77;;;6.80;80.20;;;;;;4943126;28;20108;-62
2023/12/20 01:25:59;;;;;;;2.10;1.90;;;6.70;80.30;;;;;;4947096;28;20118;-63
2023/12/20 01:28:25;;;;;;;2.22;2.00;;;6.70;80.50;;;;;;4947303;28;20050;-62
2023/12/20 01:30:51;;;;;;;2.53;2.20;;;6.70;80.60;;;;;;4947577;28;20031;-62
2023/12/20 01:33:16;;;;;;;2.47;2.13;;;6.70;80.80;;;;;;4942459;28;20432;-62
2023/12/20 01:35:42;;;;;;;2.70;2.35;;;6.70;81.00;;;;;;4947980;28;20087;-60
2023/12/20 01:38:07;;;;;;;2.20;2.00;;;6.60;81.10;;;;;;4944849;28;20119;-61
2023/12/20 01:40:33;;;;;;;2.50;2.25;;;6.60;81.30;;;;;;4945343;28;20085;-63
2023/12/20 01:43:07;;;;;;;2.75;2.17;;;6.70;81.50;;;;;;4946426;28;20028;-62
2023/12/20 01:45:32;;;;;;;2.17;1.90;;;6.70;81.80;;;;;;4943482;28;20086;-63
2023/12/20 01:47:59;;;;;;;4.60;2.20;;;6.70;81.90;;;;;;4949886;28;20471;-61
2023/12/20 01:50:26;;;;;;;3.15;2.28;;;6.70;81.90;;;;;;4941882;28;20035;-62
2023/12/20 01:52:55;;;;;;;3.40;2.17;;;6.70;82.20;;;;;;4948093;28;20031;-62
2023/12/20 01:55:21;;;;;;;2.42;2.20;;;6.70;82.20;;;;;;4948895;28;20028;-61
2023/12/20 01:57:47;;;;;;;2.80;2.35;;;6.70;82.40;;;;;;4951493;28;20240;-62
2023/12/20 02:00:14;;;;;;;2.17;1.95;;;6.70;82.50;;;;;;4948599;28;20074;-61
2023/12/20 02:02:40;;;;;;;2.72;2.40;;;6.70;82.60;;;;;;4950737;28;20251;-61
2023/12/20 02:05:07;;;;;;;2.33;2.13;;;6.70;82.60;;;;;;4948523;28;20059;-62
2023/12/20 02:07:34;;;;;;;2.83;2.50;;;6.70;82.70;;;;;;4950738;28;20038;-60
2023/12/20 02:10:00;;;;;;;2.97;2.40;;;6.70;82.90;;;;;;4949570;28;20105;-63
2023/12/20 02:12:26;;;;;;;3.40;2.33;;;6.70;82.90;;;;;;4946573;28;20032;-62
2023/12/20 02:14:52;;;;;;;2.60;2.38;;;6.70;82.90;;;;;;4947165;28;20034;-62
2023/12/20 02:17:18;;;;;;;2.83;2.28;;;6.60;83.00;;;;;;4943988;28;20032;-62
2023/12/20 02:19:43;;;;;;;2.50;2.30;;;6.70;83.20;;;;;;4950723;28;20032;-61
2023/12/20 02:22:13;;;;;;;2.42;2.22;;;6.70;83.40;;;;;;4950499;28;20122;-62
2023/12/20 02:24:38;;;;;;;2.80;2.03;;;6.70;83.60;;;;;;4950103;28;20553;-62
2023/12/20 02:27:07;;;;;;;1.92;1.73;;;6.70;83.60;;;;;;4946270;28;20043;-63
2023/12/20 02:29:34;;;;;;;2.45;2.05;;;6.70;83.90;;;;;;4946197;28;20047;-63
2023/12/20 02:31:59;;;;;;;2.20;2.00;;;6.70;84.00;;;;;;4945908;28;20442;-63
2023/12/20 02:34:25;;;;;;;2.22;2.00;;;6.70;84.10;;;;;;4944317;28;20106;-61
2023/12/20 02:36:51;;;;;;;2.25;2.05;;;6.70;84.30;;;;;;4947900;28;20035;-62
2023/12/20 02:39:16;;;;;;;2.72;2.38;;;6.70;84.30;;;;;;4948425;28;20036;-62
2023/12/20 02:41:42;;;;;;;1.67;1.58;;;6.70;84.30;;;;;;4945980;28;20042;-61
2023/12/20 02:44:07;;;;;;;2.70;1.77;;;6.70;84.50;;;;;;4947153;28;20411;-61
2023/12/20 02:46:33;;;;;;;1.67;1.58;;;6.80;84.50;;;;;;4947447;28;20418;-63
2023/12/20 02:48:59;;;;;;;1.77;1.67;;;6.80;84.60;;;;;;4943696;28;20455;-62
2023/12/20 02:51:24;;;;;;;1.75;1.65;;;6.80;84.80;;;;;;4948096;28;20110;-63
2023/12/20 02:53:50;;;;;;;1.67;1.58;;;6.80;85.00;;;;;;4947356;28;20455;-62
2023/12/20 02:56:15;;;;;;;1.73;1.58;;;6.80;85.00;;;;;;4944237;28;20063;-61
2023/12/20 02:58:41;;;;;;;1.73;1.35;;;6.80;85.10;;;;;;4945725;28;20065;-62
2023/12/20 03:01:06;;;;;;;1.40;1.30;;;6.80;85.20;;;;;;4944501;28;20027;-61
2023/12/20 03:03:32;;;;;;;1.38;1.27;;;6.80;85.30;;;;;;4945976;28;20122;-61
2023/12/20 03:05:58;;;;;;;1.35;1.25;;;6.80;85.50;;;;;;4948561;28;20035;-60
2023/12/20 03:08:23;;;;;;;1.30;1.20;;;6.90;85.50;;;;;;4951592;28;20042;-62
2023/12/20 03:10:49;;;;;;;1.35;1.20;;;6.90;85.80;;;;;;4949211;28;20039;-61
2023/12/20 03:13:14;;;;;;;1.42;1.20;;;6.90;85.70;;;;;;4943749;28;20463;-62
2023/12/20 03:15:40;;;;;;;1.10;1.00;;;6.90;85.80;;;;;;4947418;28;20094;-60
2023/12/20 03:18:06;;;;;;;1.00;1.00;;;6.90;85.80;;;;;;4943051;28;20043;-61
2023/12/20 03:20:34;;;;;;;0.77;0.77;;;7.00;85.90;;;;;;4946983;28;20031;-63
2023/12/20 03:23:00;;;;;;;1.00;1.00;;;7.00;85.90;;;;;;4947547;28;20063;-62
2023/12/20 03:25:25;;;;;;;1.10;1.00;;;7.00;86.40;;;;;;4945811;28;20067;-62
2023/12/20 03:27:52;;;;;;;1.15;1.00;;;7.00;85.90;;;;;;4946684;28;20039;-63
2023/12/20 03:30:17;;;;;;;1.00;0.90;;;7.00;86.00;;;;;;4949005;28;20031;-62
2023/12/20 03:32:43;;;;;;;1.00;0.90;;;7.10;86.10;;;;;;4943341;28;20538;-63
2023/12/20 03:35:09;;;;;;;0.77;0.77;;;7.10;86.40;;;;;;4947725;28;20043;-63
2023/12/20 03:37:34;;;;;;;0.90;0.90;;;7.10;87.30;;;;;;4946557;28;20114;-64
2023/12/20 03:40:00;;;;;;;1.00;0.90;;;7.10;86.60;;;;;;4944483;28;20039;-64
2023/12/20 03:42:26;;;;;;;0.80;0.80;;;7.10;86.70;;;;;;4946872;28;20035;-63
2023/12/20 03:44:51;;;;;;;1.63;0.82;;;7.10;86.80;;;;;;4939725;28;20094;-62
2023/12/20 03:47:17;;;;;;;1.88;0.77;;;7.20;87.10;;;;;;4946208;28;20032;-64
2023/12/20 03:49:42;;;;;;;0.80;0.70;;;7.20;87.20;;;;;;4950410;28;20063;-64
2023/12/20 03:52:08;;;;;;;0.88;0.88;;;7.20;87.40;;;;;;4944048;28;20054;-64
2023/12/20 03:54:35;;;;;;;4.88;1.05;;;7.20;87.60;;;;;;4946188;28;20479;-64
2023/12/20 03:57:01;;;;;;;1.58;0.95;;;7.20;87.90;;;;;;4942575;28;20038;-65
2023/12/20 03:59:26;;;;;;;1.70;0.90;;;7.20;88.10;;;;;;4946368;28;20408;-65
2023/12/20 04:01:52;;;;;;;1.20;1.10;;;7.20;88.50;;;;;;4943668;28;20117;-64
2023/12/20 04:04:18;;;;;;;3.05;1.10;;;7.20;88.40;;;;;;4943159;28;20044;-64
2023/12/20 04:06:44;;;;;;;1.10;1.00;;;7.20;88.50;;;;;;4947905;28;20043;-64
2023/12/20 04:09:09;;;;;;;2.00;1.27;;;7.20;88.50;;;;;;4942525;28;20550;-64
2023/12/20 04:11:36;;;;;;;1.40;1.30;;;7.20;89.70;;;;;;4943843;28;20040;-65
2023/12/20 04:14:01;;;;;;;1.65;1.30;;;7.20;88.70;;;;;;4943457;28;20047;-64
2023/12/20 04:16:27;;;;;;;1.20;1.10;;;7.30;88.80;;;;;;4949148;28;20601;-65
2023/12/20 04:18:52;;;;;;;1.05;0.95;;;7.30;88.80;;;;;;4947507;28;20039;-65
2023/12/20 04:21:18;;;;;;;1.42;1.15;;;7.30;88.80;;;;;;4945204;28;20500;-65
2023/12/20 04:23:44;;;;;;;2.22;1.52;;;7.30;88.90;;;;;;4944840;28;20035;-65
2023/12/20 04:26:10;;;;;;;2.00;1.17;;;7.30;88.90;;;;;;4946998;28;20031;-65
2023/12/20 04:28:35;;;;;;;1.42;1.00;;;7.30;88.90;;;;;;4944048;28;20040;-64
2023/12/20 04:31:01;;;;;;;1.40;1.30;;;7.30;88.90;;;;;;4947450;28;20415;-64
2023/12/20 04:33:26;;;;;;;1.65;1.35;;;7.30;89.00;;;;;;4948534;28;20154;-65
2023/12/20 04:35:52;;;;;;;1.80;1.52;;;7.30;89.00;;;;;;4947297;28;20042;-64
2023/12/20 04:38:17;;;;;;;1.50;1.38;;;7.30;89.20;;;;;;4943370;28;20054;-65
2023/12/20 04:40:43;;;;;;;1.38;1.27;;;7.30;89.20;;;;;;4951124;28;20035;-64
2023/12/20 04:43:09;;;;;;;2.47;1.63;;;7.30;89.30;;;;;;4945138;28;20039;-64
2023/12/20 04:45:35;;;;;;;1.45;1.30;;;7.30;89.40;;;;;;4947102;28;20035;-65
2023/12/20 04:48:01;;;;;;;1.40;1.30;;;7.30;89.50;;;;;;4944151;28;20039;-65
2023/12/20 04:50:27;;;;;;;2.83;1.40;;;7.20;89.40;;;;;;4944618;28;20036;-64
2023/12/20 04:52:52;;;;;;;1.63;1.25;;;7.20;89.50;;;;;;4944810;28;20051;-64
2023/12/20 04:55:18;;;;;;;2.45;1.20;;;7.20;89.50;;;;;;4942305;28;20491;-64
2023/12/20 04:57:43;;;;;;;1.65;1.50;;;7.20;89.50;;;;;;4948770;28;20038;-64
2023/12/20 05:00:09;;;;;;;1.40;1.30;;;7.20;89.50;;;;;;4944323;28;20044;-64
2023/12/20 05:02:36;;;;;;;1.30;1.20;;;7.20;89.50;;;;;;4947245;28;20039;-64
2023/12/20 05:05:02;;;;;;;1.35;1.23;;;7.20;89.50;;;;;;4942202;28;20086;-63
2023/12/20 05:07:27;;;;;;;2.22;1.58;;;7.20;89.50;;;;;;4944447;28;20537;-64
2023/12/20 05:09:53;;;;;;;2.60;1.90;;;7.20;89.60;;;;;;4947339;28;20594;-63
2023/12/20 05:12:19;;;;;;;3.15;1.90;;;7.20;89.60;;;;;;4947180;28;20098;-64
2023/12/20 05:14:46;;;;;;;2.13;1.67;;;7.20;89.60;;;;;;4944703;28;20554;-64
2023/12/20 05:17:11;;;;;;;2.25;1.73;;;7.30;89.70;;;;;;4943564;28;20098;-64
2023/12/20 05:19:37;;;;;;;2.38;1.95;;;7.20;89.70;;;;;;4947490;28;20032;-64
2023/12/20 05:22:03;;;;;;;2.58;2.10;;;7.20;89.70;;;;;;4947077;28;20045;-63
2023/12/20 05:24:28;;;;;;;2.22;1.95;;;7.20;89.70;;;;;;4940743;28;20060;-64
2023/12/20 05:26:54;;;;;;;3.90;2.15;;;7.20;89.80;;;;;;4949084;28;20035;-64
2023/12/20 05:29:20;;;;;;;2.22;2.03;;;7.20;89.70;;;;;;4943304;28;20067;-64
2023/12/20 05:31:45;;;;;;;2.90;2.40;;;7.20;90.00;;;;;;4947859;28;20543;-64
2023/12/20 05:34:11;;;;;;;2.30;2.10;;;7.20;89.80;;;;;;4949035;28;20320;-64
2023/12/20 05:36:37;;;;;;;4.63;2.45;;;7.20;89.80;;;;;;4950110;28;20113;-65
2023/12/20 05:39:05;;;;;;;2.80;2.50;;;7.20;89.70;;;;;;4952590;28;20523;-64
2023/12/20 05:41:31;;;;;;;2.70;2.50;;;7.20;89.80;;;;;;4947029;28;20040;-65
2023/12/20 05:43:57;;;;;;;2.60;2.40;;;7.10;89.70;;;;;;4951213;28;20533;-64
2023/12/20 05:46:24;;;;;;;3.50;2.78;;;7.10;89.90;;;;;;4948318;28;20039;-65
2023/12/20 05:48:49;;;;;;;3.70;2.65;;;7.10;90.00;;;;;;4951166;28;20045;-64
2023/12/20 05:51:15;;;;;;;2.97;2.67;;;7.10;90.00;;;;;;4946974;28;21207;-65
2023/12/20 05:53:41;;;;;;;3.72;2.70;;;7.10;90.00;;;;;;4947034;28;20086;-63
2023/12/20 05:56:06;;;;;;;3.15;2.85;;;7.10;90.00;;;;;;4946915;28;20543;-64
2023/12/20 05:58:33;;;;;;;3.67;2.97;;;7.10;90.00;;;;;;4951599;28;20042;-64
2023/12/20 06:00:59;;;;;;;2.95;2.65;;;7.10;90.00;;;;;;4948047;28;20039;-64
2023/12/20 06:03:24;;;;;;;3.88;2.63;;;7.00;90.30;;;;;;4946339;28;20393;-64
2023/12/20 06:05:50;;;;;;;2.60;2.40;;;7.00;90.00;;;;;;4949218;28;20055;-64
2023/12/20 06:08:15;;;;;;;2.67;2.47;;;7.00;90.00;;;;;;4950179;28;20041;-64
2023/12/20 06:10:41;;;;;;;3.15;2.85;;;7.00;90.00;;;;;;4949632;28;20079;-64
2023/12/20 06:13:07;;;;;;;2.92;2.65;;;7.00;90.00;;;;;;4946550;28;20334;-64
2023/12/20 06:15:33;;;;;;;3.15;2.85;;;6.90;90.00;;;;;;4949399;28;20491;-63
2023/12/20 06:17:58;;;;;;;2.97;2.67;;;6.90;90.10;;;;;;4947729;28;20038;-64
2023/12/20 06:20:24;;;;;;;3.72;3.00;;;6.90;90.10;;;;;;4947677;28;20047;-64
2023/12/20 06:22:50;;;;;;;3.15;2.80;;;6.90;90.30;;;;;;4951010;28;20082;-64
2023/12/20 06:25:16;;;;;;;3.78;3.10;;;6.90;90.10;;;;;;4949703;28;20040;-64
2023/12/20 06:27:42;;;;;;;3.17;2.88;;;6.90;90.10;;;;;;4950049;28;20035;-64
2023/12/20 06:30:11;;;;;;;4.30;3.17;;;6.90;90.10;;;;;;4953288;28;20035;-64
2023/12/20 06:32:37;;;;;;;3.58;3.03;;;6.90;90.20;;;;;;4944961;28;20070;-64
2023/12/20 06:35:04;;;;;;;4.00;3.08;;;6.90;90.20;;;;;;4946686;28;20039;-64
2023/12/20 06:37:30;;;;;;;3.83;3.30;;;6.90;90.20;;;;;;4942265;28;20032;-64
2023/12/20 06:39:56;;;;;;;3.22;2.92;;;6.90;90.20;;;;;;4943864;28;20087;-64
2023/12/20 06:42:22;;;;;;;4.55;3.60;;;6.90;90.20;;;;;;4946561;28;20042;-64
2023/12/20 06:44:48;;;;;;;4.88;3.70;;;6.90;90.20;;;;;;4948312;28;20032;-64
2023/12/20 06:47:14;;;;;;;3.88;3.45;;;6.90;90.20;;;;;;4947924;28;20035;-64
2023/12/20 06:49:40;;;;;;;3.58;3.28;;;6.90;90.20;;;;;;4951002;28;20039;-64
2023/12/20 06:52:06;;;;;;;4.80;3.22;;;6.80;90.30;;;;;;4945365;28;20054;-64
2023/12/20 06:54:33;;;;;;;3.92;3.40;;;6.90;90.30;;;;;;4946600;28;20043;-64
2023/12/20 06:56:59;;;;;;;3.95;3.35;;;6.90;90.30;;;;;;4944032;28;20057;-64
2023/12/20 06:59:25;;;;;;;3.58;3.28;;;6.90;90.30;;;;;;4940602;28;20089;-64
2023/12/20 07:01:51;;;;;;;3.33;3.03;;;6.90;90.30;;;;;;4942503;28;20061;-64
2023/12/20 07:04:21;;;;;;;4.05;3.20;;;6.90;90.30;;;;;;4939749;28;20447;-64
2023/12/20 07:06:48;;;;;;;5.05;3.15;;;6.90;90.30;;;;;;4943814;28;20503;-64
2023/12/20 07:09:14;;;;;;;4.53;3.05;;;6.90;90.30;;;;;;4942306;28;20094;-63
2023/12/20 07:11:39;;;;;;;3.97;3.20;;;6.90;90.30;;;;;;4935422;28;20043;-64
2023/12/20 07:14:05;;;;;;;3.22;2.92;;;6.90;90.30;;;;;;4941825;28;20043;-64
2023/12/20 07:16:31;;;;;;;3.58;2.95;;;6.90;90.30;;;;;;4939841;28;20134;-64
2023/12/20 07:18:56;;;;;;;4.13;2.90;;;6.80;90.30;;;;;;4940876;28;20035;-64
2023/12/20 07:21:22;;;;;;;3.50;2.92;;;6.80;90.30;;;;;;4945516;28;20570;-64
2023/12/20 07:23:48;;;;;;;4.07;3.10;;;6.90;90.40;;;;;;4940754;28;20039;-64
2023/12/20 07:26:14;;;;;;;3.30;3.00;;;6.80;90.40;;;;;;4942543;28;20043;-64
2023/12/20 07:28:40;;;;;;;3.60;3.30;;;6.80;90.40;;;;;;4941189;28;20042;-64
2023/12/20 07:31:06;;;;;;;3.45;3.00;;;6.80;90.40;;;;;;4947176;28;20035;-64
2023/12/20 07:33:31;;;;;;;4.20;3.22;;;6.80;90.40;;;;;;4946292;28;20039;-64
2023/12/20 07:35:58;;;;;;;3.60;3.30;;;6.80;90.50;;;;;;4947598;28;20475;-64
2023/12/20 07:38:24;;;;;;;3.72;3.42;;;6.80;90.50;;;;;;4944568;28;20051;-64
2023/12/20 07:40:50;;;;;;;3.45;3.15;;;6.80;90.50;;;;;;4943434;28;20126;-64
2023/12/20 07:43:15;;;;;;;4.25;3.35;;;6.80;90.50;;;;;;4945440;28;20039;-64
2023/12/20 07:45:41;;;;;;;4.22;3.70;;;6.80;90.50;;;;;;4945355;28;20031;-64
2023/12/20 07:48:07;;;;;;;4.93;4.10;;;6.80;90.50;;;;;;4946895;28;20043;-64
2023/12/20 07:50:33;;;;;;;4.30;3.75;;;6.80;90.60;;;;;;4941668;28;20043;-64
2023/12/20 07:53:00;;;;;;;4.85;3.70;;;6.80;90.60;;;;;;4940167;28;20082;-64
2023/12/20 07:55:26;;;;;;;4.05;3.65;;;6.80;90.60;;;;;;4942842;28;20454;-64
2023/12/20 07:57:52;;;;;;;3.97;3.63;;;6.80;90.60;;;;;;4944074;28;20045;-63
2023/12/20 08:00:19;;;;;;;5.30;4.60;;;6.90;90.60;;;;;;4940852;28;20048;-64
2023/12/20 08:02:44;;;;;;;4.88;3.72;;;6.90;90.70;;;;;;4944888;28;20114;-64
2023/12/20 08:05:10;;;;;;;5.32;4.18;;;6.90;90.60;;;;;;4947708;28;20122;-64
2023/12/20 08:07:36;;;;;;;4.78;4.10;;;6.80;90.60;;;;;;4938564;28;20047;-64
2023/12/20 08:10:01;;;;;;;4.53;3.72;;;6.90;90.60;;;;;;4940596;28;20493;-64
2023/12/20 08:12:27;;;;;;;4.85;3.92;;;6.90;90.60;;;;;;4944202;28;20043;-63
2023/12/20 08:14:54;;;;;;;4.35;3.95;;;6.90;90.60;;;;;;4945754;28;20031;-64
2023/12/20 08:17:19;;;;;;;4.43;4.03;;;6.90;90.60;;;;;;4934879;28;20047;-63
2023/12/20 08:19:45;;;;;;;4.32;3.83;;;6.90;90.60;;;;;;4942997;28;20035;-63
2023/12/20 08:22:11;;;;;;;3.80;3.40;;;6.90;90.60;;;;;;4946395;28;20439;-64
2023/12/20 08:24:37;;;;;;;4.88;4.07;;;7.00;90.60;;;;;;4945414;28;20031;-64
2023/12/20 08:27:02;;;;;;;4.40;4.00;;;6.90;90.60;;;;;;4939055;28;20039;-63
2023/12/20 08:29:28;;;;;;;4.38;3.97;;;7.00;90.70;;;;;;4939149;28;20660;-64
2023/12/20 08:31:54;;;;;;;6.40;4.53;;;7.00;90.70;;;;;;4942254;28;20047;-63
2023/12/20 08:34:20;;;;;;;4.70;4.20;;;7.00;90.70;;;;;;4943007;28;20031;-64
2023/12/20 08:36:46;;;;;;;5.53;4.53;;;7.00;90.70;;;;;;4942635;28;20134;-63
2023/12/20 08:39:11;;;;;;;5.05;4.40;;;7.00;90.70;;;;;;4944260;28;20035;-63
2023/12/20 08:41:37;;;;;;;5.60;4.85;;;7.00;91.20;;;;;;4944624;28;20035;-62
2023/12/20 08:44:03;;;;;;;6.10;4.32;;;7.00;90.80;;;;;;4941789;28;20039;-64
2023/12/20 08:46:29;;;;;;;5.07;4.13;;;7.10;90.80;;;;;;4937174;28;20042;-64
2023/12/20 08:48:55;;;;;;;5.78;4.25;;;7.10;90.80;;;;;;4940210;28;20032;-62
2023/12/20 08:51:22;;;;;;;4.97;4.47;;;7.10;90.70;;;;;;4943064;28;20034;-64
2023/12/20 08:53:49;;;;;;;4.70;4.15;;;7.10;90.70;;;;;;4945450;28;20043;-63
2023/12/20 08:56:15;;;;;;;5.13;3.97;;;7.10;90.70;;;;;;4939048;28;20027;-64
2023/12/20 08:58:41;;;;;;;5.68;4.32;;;7.20;90.70;;;;;;4944820;28;20062;-64
2023/12/20 09:01:07;;;;;;;4.95;4.22;;;7.10;90.70;;;;;;4941138;28;20090;-64
2023/12/20 09:03:33;;;;;;;6.13;4.30;;;7.10;90.70;;;;;;4938740;28;20036;-64
2023/12/20 09:05:58;;;;;;;4.68;4.20;;;7.10;90.70;;;;;;4945062;28;20078;-64
2023/12/20 09:08:24;;;;;;;4.65;4.10;;;7.20;90.70;;;;;;4945448;28;20042;-64
2023/12/20 09:10:49;;;;;;;4.95;4.13;;;7.20;90.60;;;;;;4947493;28;20059;-64
2023/12/20 09:13:15;;;;;;;4.70;4.15;;;7.20;90.60;;;;;;4949355;28;20028;-64
2023/12/20 09:15:41;;;;;;;5.60;4.20;;;7.20;90.50;;;;;;4952725;28;20141;-63
2023/12/20 09:18:06;;;;;;;5.45;4.22;;;7.20;90.60;;;;;;4944454;28;20499;-64
2023/12/20 09:20:32;;;;;;;5.38;4.30;;;7.30;90.60;;;;;;4956896;28;20095;-64
2023/12/20 09:22:58;;;;;;;5.07;3.97;;;7.30;90.60;;;;;;4951760;28;20494;-64
2023/12/20 09:25:25;;;;;;;5.38;4.03;;;7.30;90.60;;;;;;4956410;28;20115;-65
2023/12/20 09:27:52;;;;;;;4.95;3.72;;;7.30;90.50;;;;;;4947995;28;20043;-64
2023/12/20 09:30:17;;;;;;;4.15;3.75;;;7.30;90.50;;;;;;4946915;28;20114;-64
2023/12/20 09:32:43;;;;;;;3.58;3.13;;;7.30;90.50;;;;;;4942254;28;20135;-64
2023/12/20 09:35:09;;;;;;;4.47;3.80;;;7.30;90.40;;;;;;4939920;28;20119;-64
2023/12/20 09:37:34;;;;;;;9.40;4.03;;;7.30;90.50;;;;;;4948904;28;20118;-64
2023/12/20 09:40:00;;;;;;;4.65;3.42;;;7.40;90.60;;;;;;4944170;28;20130;-64
2023/12/20 09:43:00;;;;;;;4.50;3.72;;;7.40;90.60;;;;;;4948300;28;20517;-64
2023/12/20 09:45:25;;;;;;;3.58;3.28;;;7.50;90.70;;;;;;4947708;28;20580;-63
2023/12/20 09:47:54;;;;;;;4.03;3.63;;;7.40;90.60;;;;;;4949853;28;20539;-64
2023/12/20 09:50:21;;;;;;;3.70;3.40;;;7.50;90.60;;;;;;4948609;28;20031;-64
2023/12/20 09:52:52;;;;;;;3.75;3.28;;;7.50;90.60;;;;;;4942860;28;20035;-64
2023/12/20 09:55:21;;;;;;;3.72;3.38;;;7.50;90.60;;;;;;4942222;28;20039;-64
2023/12/20 09:57:47;;;;;;;3.95;3.10;;;7.50;90.50;;;;;;4944699;28;20211;-64
2023/12/20 10:00:15;;;;;;;3.08;2.78;;;7.50;90.60;;;;;;4946435;28;20402;-64
2023/12/20 10:02:53;;;;;;;3.70;3.17;;;7.50;90.60;;;;;;4949387;28;20074;-64
2023/12/20 10:05:27;;;;;;;2.95;2.75;;;7.60;90.60;;;;;;4948289;28;20032;-63
2023/12/20 10:07:52;;;;;;;3.03;2.78;;;7.60;90.60;;;;;;4945752;28;20495;-63
2023/12/20 10:10:18;;;;;;;3.08;2.78;;;7.70;90.60;;;;;;4938454;28;20046;-64
2023/12/20 10:13:03;;;;;;;2.90;2.60;;;7.70;90.50;;;;;;4945405;28;20036;-64
2023/12/20 10:15:28;;;;;;;2.97;1.95;;;7.80;90.50;;;;;;4952195;28;20027;-64
2023/12/20 10:17:54;;;;;;;2.00;1.83;;;7.80;90.40;;;;;;4950584;28;20541;-63
2023/12/20 10:20:20;;;;;;;2.33;2.13;;;7.90;90.50;;;;;;4948434;28;20399;-64
2023/12/20 10:22:47;;;;;;;2.42;2.00;;;7.90;90.50;;;;;;4947288;28;20031;-62
2023/12/20 10:25:12;;;;;;;2.45;1.85;;;7.90;90.40;;;;;;4950112;28;20046;-63
2023/12/20 10:27:38;;;;;;;2.17;1.95;;;8.00;90.40;;;;;;4943665;28;20028;-64
2023/12/20 10:30:04;;;;;;;2.60;1.98;;;8.00;90.30;;;;;;4951393;28;20054;-63
2023/12/20 10:32:31;;;;;;;1.90;1.80;;;8.00;90.20;;;;;;4945083;28;20439;-63
2023/12/20 10:34:57;;;;;;;2.45;2.20;;;8.00;90.10;;;;;;4947043;28;20541;-64
2023/12/20 10:37:23;;;;;;;3.35;1.90;;;8.10;90.10;;;;;;4950182;28;20055;-63
2023/12/20 10:39:56;;;;;;;1.63;1.52;;;8.10;90.20;;;;;;4949944;28;20044;-63
2023/12/20 10:42:22;;;;;;;1.80;1.70;;;8.10;90.10;;;;;;4949103;28;20047;-63
2023/12/20 10:44:49;;;;;;;2.17;1.90;;;8.20;90.20;;;;;;4950943;28;21345;-64
2023/12/20 10:47:16;;;;;;;1.70;1.60;;;8.20;90.20;;;;;;4948004;28;20113;-64
2023/12/20 10:49:42;;;;;;;1.63;1.52;;;8.20;90.10;;;;;;4948916;28;20067;-64
2023/12/20 10:52:08;;;;;;;4.32;2.72;;;8.30;90.20;;;;;;4948881;28;20200;-64
2023/12/20 10:54:34;;;;;;;2.70;2.38;;;8.40;90.10;;;;;;4950504;28;20031;-63
2023/12/20 10:57:04;;;;;;;2.40;2.20;;;8.40;90.00;;;;;;4949663;28;20035;-63
2023/12/20 10:59:39;;;;;;;2.00;1.85;;;8.40;90.10;;;;;;4945799;28;20031;-64
2023/12/20 11:02:05;;;;;;;1.90;1.75;;;8.40;90.10;;;;;;4945808;28;20513;-64
2023/12/20 11:04:50;;;;;;;2.60;0.60;;;8.50;89.90;;;;;;4949377;28;20076;-64
2023/12/20 11:07:30;;;;;;;1.48;0.90;;;8.50;88.90;;;;;;4947607;28;20097;-64
2023/12/20 11:10:09;;;;;;;0.75;0.30;;;8.50;89.00;;;;;;4947269;28;20385;-64
2023/12/20 11:12:54;;;;;;;1.30;0.50;;;8.40;88.10;;;;;;4947725;28;20027;-62
2023/12/20 11:15:21;;;;;;;0.20;0.20;;;8.40;88.30;;;;;;4950568;28;20520;-65
2023/12/20 11:17:55;;;;;;;0.10;0.05;;;8.30;88.20;;;;;;4948225;28;20042;-64
2023/12/20 11:20:36;;;;;;;0.20;0.10;;;8.20;86.80;;;;;;4947253;28;20082;-65
2023/12/20 11:23:02;;;;;;;0.55;0.10;;;8.10;86.80;;;;;;4950665;28;20038;-64
2023/12/20 11:25:28;;;;;;;0.10;0.10;;;7.90;86.70;;;;;;4943635;28;20024;-64
2023/12/20 11:28:10;;;;;;;0.10;0.10;;;7.80;87.70;;;;;;4945684;28;20052;-63
2023/12/20 11:30:43;;;;;;;0.20;0.20;;;7.70;87.30;;;;;;4948695;28;20518;-64
2023/12/20 11:33:09;;;;;;;0.20;0.15;;;7.60;87.60;;;;;;4945730;28;20467;-65
2023/12/20 11:35:36;;;;;;;0.15;0.15;;;7.50;87.80;;;;;;4947385;28;20038;-63
2023/12/20 11:38:02;;;;;;;0.85;0.10;;;7.40;87.90;;;;;;4948994;28;20757;-64
2023/12/20 11:40:28;;;;;;;0.63;0.20;;;7.30;88.30;;;;;;4945387;28;20181;-64
2023/12/20 11:42:54;;;;;;;0.40;0.30;;;7.40;88.80;;;;;;4945012;28;20502;-64
2023/12/20 11:45:24;;;;;;;0.63;0.40;;;7.20;88.80;;;;;;4949523;28;20039;-64
2023/12/20 11:47:50;;;;;;;0.65;0.50;;;7.20;89.20;;;;;;4947085;28;20127;-63
2023/12/20 11:50:17;;;;;;;1.52;0.70;;;7.20;89.10;;;;;;4940144;28;20471;-63
2023/12/20 11:52:42;;;;;;;0.40;0.40;;;7.10;88.30;;;;;;4941823;28;20055;-64
2023/12/20 11:55:08;;;;;;;2.17;0.70;;;7.10;88.30;;;;;;4945951;28;20055;-64
2023/12/20 11:57:34;;;;;;;0.85;0.80;;;7.20;88.60;;;;;;4945453;28;20471;-64
2023/12/20 11:59:59;;;;;;;0.90;0.80;;;7.20;88.80;;;;;;4951608;28;20406;-64
2023/12/20 12:02:25;;;;;;;1.30;0.77;;;7.20;88.80;;;;;;4944794;28;20547;-63
2023/12/20 12:04:51;;;;;;;1.90;0.93;;;7.30;88.30;;;;;;4947189;28;20039;-63
2023/12/20 12:07:17;;;;;;;2.05;1.08;;;7.30;87.70;;;;;;4945969;28;20508;-64
2023/12/20 12:09:43;;;;;;;1.98;1.20;;;7.30;87.80;;;;;;4946041;28;20570;-63
2023/12/20 12:12:10;;;;;;;2.08;1.00;;;7.30;87.90;;;;;;4945086;28;20471;-62
2023/12/20 12:14:37;;;;;;;1.00;0.75;;;7.30;87.60;;;;;;4945621;28;20042;-63
2023/12/20 12:17:03;;;;;;;1.95;0.93;;;7.30;87.50;;;;;;4948924;28;20043;-64
2023/12/20 12:19:29;;;;;;;1.20;0.95;;;7.30;87.40;;;;;;4944441;28;20119;-63
2023/12/20 12:22:13;;;;;;;1.92;0.73;;;7.30;87.60;;;;;;4950255;28;20590;-64
2023/12/20 12:24:43;;;;;;;1.00;0.68;;;7.30;87.10;;;;;;4949599;28;20043;-62
2023/12/20 12:27:10;;;;;;;1.15;0.93;;;7.30;87.30;;;;;;4948343;28;20065;-62
2023/12/20 12:29:36;;;;;;;0.70;0.63;;;7.30;87.30;;;;;;4948371;28;20407;-63
2023/12/20 12:32:08;;;;;;;1.95;0.77;;;7.30;87.50;;;;;;4946394;28;20054;-60
2023/12/20 12:34:36;;;;;;;0.75;0.75;;;7.30;87.60;;;;;;4945896;28;20039;-61
2023/12/20 12:37:05;;;;;;;0.47;0.47;;;7.30;87.70;;;;;;4947592;28;20050;-63
2023/12/20 12:39:31;;;;;;;1.13;0.50;;;7.30;87.70;;;;;;4945813;28;20045;-63
2023/12/20 12:41:59;;;;;;;0.73;0.73;;;7.30;87.10;;;;;;4947381;28;20035;-64
2023/12/20 12:44:25;;;;;;;2.05;0.95;;;7.30;87.10;;;;;;4949339;28;20038;-64
2023/12/20 12:46:53;;;;;;;0.57;0.57;;;7.40;87.00;;;;;;4947194;28;20579;-63
2023/12/20 12:49:22;;;;;;;0.82;0.70;;;7.40;86.90;;;;;;4951763;28;20509;-63
2023/12/20 12:51:48;;;;;;;0.80;0.80;;;7.40;87.50;;;;;;4943880;28;20431;-63
2023/12/20 12:54:15;;;;;;;1.25;0.85;;;7.40;86.90;;;;;;4944820;28;20043;-63